sensor_id;sensor_type;location;lat;lon;timestamp;temperature;humidity
23371;DHT22;11858;51.056;3.712;2024-03-29T00:00:42;10.70;99.90
23371;DHT22;11858;51.056;3.712;2024-03-29T00:03:10;10.70;99.90
23371;DHT22;11858;51.056;3.712;2024-03-29T00:05:38;10.80;99.90
23371;DHT22;11858;51.056;3.712;2024-03-29T00:08:04;10.80;99.90
23371;DHT22;11858;51.056;3.712;2024-03-29T00:10:30;10.80;99.90
23371;DHT22;11858;51.056;3.712;2024-03-29T00:12:56;10.80;99.90
23371;DHT22;11858;51.056;3.712;2024-03-29T00:15:22;10.80;99.90
23371;DHT22;11858;51.056;3.712;2024-03-29T00:17:47;10.80;99.90
23371;DHT22;11858;51.056;3.712;2024-03-29T00:20:13;10.80;99.90
23371;DHT22;11858;51.056;3.712;2024-03-29T00:22:39;10.80;99.90
23371;DHT22;11858;51.056;3.712;2024-03-29T00:25:05;10.90;99.90
23371;DHT22;11858;51.056;3.712;2024-03-29T00:27:30;11.00;99.90
23371;DHT22;11858;51.056;3.712;2024-03-29T00:29:56;11.00;99.90
23371;DHT22;11858;51.056;3.712;2024-03-29T00:32:22;10.90;99.90
23371;DHT22;11858;51.056;3.712;2024-03-29T00:34:52;10.90;99.90
23371;DHT22;11858;51.056;3.712;2024-03-29T00:37:18;10.90;99.90
23371;DHT22;11858;51.056;3.712;2024-03-29T00:39:44;11.00;99.90
23371;DHT22;11858;51.056;3.712;2024-03-29T00:42:10;11.00;99.90
23371;DHT22;11858;51.056;3.712;2024-03-29T00:44:41;11.10;99.90
23371;DHT22;11858;51.056;3.712;2024-03-29T00:47:07;11.00;99.90
23371;DHT22;11858;51.056;3.712;2024-03-29T00:49:33;10.90;99.90
23371;DHT22;11858;51.056;3.712;2024-03-29T00:51:59;10.90;99.90
23371;DHT22;11858;51.056;3.712;2024-03-29T00:54:25;11.00;99.90
23371;DHT22;11858;51.056;3.712;2024-03-29T00:56:50;10.90;99.90
23371;DHT22;11858;51.056;3.712;2024-03-29T00:59:16;11.00;99.90
23371;DHT22;11858;51.056;3.712;2024-03-29T01:01:42;11.10;99.90
23371;DHT22;11858;51.056;3.712;2024-03-29T01:04:08;11.00;99.90
23371;DHT22;11858;51.056;3.712;2024-03-29T01:06:34;11.10;99.90
23371;DHT22;11858;51.056;3.712;2024-03-29T01:09:00;11.00;99.90
23371;DHT22;11858;51.056;3.712;2024-03-29T01:11:26;11.20;99.90
23371;DHT22;11858;51.056;3.712;2024-03-29T01:13:52;11.10;99.90
23371;DHT22;11858;51.056;3.712;2024-03-29T01:16:18;11.00;99.90
23371;DHT22;11858;51.056;3.712;2024-03-29T01:18:43;11.00;99.90
23371;DHT22;11858;51.056;3.712;2024-03-29T01:21:09;11.00;99.90
23371;DHT22;11858;51.056;3.712;2024-03-29T01:23:35;11.10;99.90
23371;DHT22;11858;51.056;3.712;2024-03-29T01:26:01;11.10;99.90
23371;DHT22;11858;51.056;3.712;2024-03-29T01:28:27;11.20;99.90
23371;DHT22;11858;51.056;3.712;2024-03-29T01:30:53;11.20;99.90
23371;DHT22;11858;51.056;3.712;2024-03-29T01:33:20;11.00;99.90
23371;DHT22;11858;51.056;3.712;2024-03-29T01:35:46;11.00;99.90
23371;DHT22;11858;51.056;3.712;2024-03-29T01:38:12;11.00;99.90
23371;DHT22;11858;51.056;3.712;2024-03-29T01:40:38;11.00;99.90
23371;DHT22;11858;51.056;3.712;2024-03-29T01:43:03;11.00;99.90
23371;DHT22;11858;51.056;3.712;2024-03-29T01:45:29;11.00;99.90
23371;DHT22;11858;51.056;3.712;2024-03-29T01:47:56;10.90;99.90
23371;DHT22;11858;51.056;3.712;2024-03-29T01:50:22;10.90;99.90
23371;DHT22;11858;51.056;3.712;2024-03-29T01:52:48;11.00;99.90
23371;DHT22;11858;51.056;3.712;2024-03-29T01:55:15;11.00;99.90
23371;DHT22;11858;51.056;3.712;2024-03-29T01:57:41;10.90;99.90
23371;DHT22;11858;51.056;3.712;2024-03-29T02:00:07;10.80;99.90
23371;DHT22;11858;51.056;3.712;2024-03-29T02:02:34;10.90;99.90
23371;DHT22;11858;51.056;3.712;2024-03-29T02:05:00;10.90;99.90
23371;DHT22;11858;51.056;3.712;2024-03-29T02:07:26;10.90;99.90
23371;DHT22;11858;51.056;3.712;2024-03-29T02:09:53;10.90;99.90
23371;DHT22;11858;51.056;3.712;2024-03-29T02:12:18;10.80;99.90
23371;DHT22;11858;51.056;3.712;2024-03-29T02:14:44;10.80;99.90
23371;DHT22;11858;51.056;3.712;2024-03-29T02:17:10;10.90;99.90
23371;DHT22;11858;51.056;3.712;2024-03-29T02:19:35;10.80;99.90
23371;DHT22;11858;51.056;3.712;2024-03-29T02:22:01;10.80;99.90
23371;DHT22;11858;51.056;3.712;2024-03-29T02:24:31;10.80;99.90
23371;DHT22;11858;51.056;3.712;2024-03-29T02:26:57;10.80;99.90
23371;DHT22;11858;51.056;3.712;2024-03-29T02:29:23;10.70;99.90
23371;DHT22;11858;51.056;3.712;2024-03-29T02:31:49;10.70;99.90
23371;DHT22;11858;51.056;3.712;2024-03-29T02:34:15;10.70;99.90
23371;DHT22;11858;51.056;3.712;2024-03-29T02:36:41;10.80;99.90
23371;DHT22;11858;51.056;3.712;2024-03-29T02:39:09;10.70;99.90
23371;DHT22;11858;51.056;3.712;2024-03-29T02:41:35;10.50;99.90
23371;DHT22;11858;51.056;3.712;2024-03-29T02:44:01;10.50;99.90
23371;DHT22;11858;51.056;3.712;2024-03-29T02:46:27;10.40;99.90
23371;DHT22;11858;51.056;3.712;2024-03-29T02:48:52;10.50;99.90
23371;DHT22;11858;51.056;3.712;2024-03-29T02:51:18;10.50;99.90
23371;DHT22;11858;51.056;3.712;2024-03-29T02:53:44;10.20;99.90
23371;DHT22;11858;51.056;3.712;2024-03-29T02:56:09;10.10;99.90
23371;DHT22;11858;51.056;3.712;2024-03-29T02:58:35;9.80;99.90
23371;DHT22;11858;51.056;3.712;2024-03-29T03:01:08;9.50;99.90
23371;DHT22;11858;51.056;3.712;2024-03-29T03:03:34;9.50;99.90
23371;DHT22;11858;51.056;3.712;2024-03-29T03:06:00;9.40;99.90
23371;DHT22;11858;51.056;3.712;2024-03-29T03:08:25;9.30;99.90
23371;DHT22;11858;51.056;3.712;2024-03-29T03:11:09;9.30;99.90
23371;DHT22;11858;51.056;3.712;2024-03-29T03:13:35;9.30;99.90
23371;DHT22;11858;51.056;3.712;2024-03-29T03:16:01;9.30;99.90
23371;DHT22;11858;51.056;3.712;2024-03-29T03:18:26;9.40;99.90
23371;DHT22;11858;51.056;3.712;2024-03-29T03:20:55;9.40;99.90
23371;DHT22;11858;51.056;3.712;2024-03-29T03:23:23;9.40;99.90
23371;DHT22;11858;51.056;3.712;2024-03-29T03:25:56;9.40;99.90
23371;DHT22;11858;51.056;3.712;2024-03-29T03:28:21;9.30;99.90
23371;DHT22;11858;51.056;3.712;2024-03-29T03:30:51;9.20;99.90
23371;DHT22;11858;51.056;3.712;2024-03-29T03:33:17;9.10;99.90
23371;DHT22;11858;51.056;3.712;2024-03-29T03:35:43;9.00;99.90
23371;DHT22;11858;51.056;3.712;2024-03-29T03:38:09;9.00;99.90
23371;DHT22;11858;51.056;3.712;2024-03-29T03:40:35;9.00;99.90
23371;DHT22;11858;51.056;3.712;2024-03-29T03:43:05;9.00;99.90
23371;DHT22;11858;51.056;3.712;2024-03-29T03:45:40;9.00;99.90
23371;DHT22;11858;51.056;3.712;2024-03-29T03:48:10;9.10;99.90
23371;DHT22;11858;51.056;3.712;2024-03-29T03:50:37;9.10;99.90
23371;DHT22;11858;51.056;3.712;2024-03-29T03:53:03;9.10;99.90
23371;DHT22;11858;51.056;3.712;2024-03-29T03:55:29;9.10;99.90
23371;DHT22;11858;51.056;3.712;2024-03-29T03:57:55;8.90;99.90
23371;DHT22;11858;51.056;3.712;2024-03-29T04:00:22;8.90;99.90
23371;DHT22;11858;51.056;3.712;2024-03-29T04:02:48;8.90;99.90
23371;DHT22;11858;51.056;3.712;2024-03-29T04:05:15;8.80;99.90
23371;DHT22;11858;51.056;3.712;2024-03-29T04:07:41;8.70;99.90
23371;DHT22;11858;51.056;3.712;2024-03-29T04:10:07;8.60;99.90
23371;DHT22;11858;51.056;3.712;2024-03-29T04:12:33;8.60;99.90
23371;DHT22;11858;51.056;3.712;2024-03-29T04:14:58;8.70;99.90
23371;DHT22;11858;51.056;3.712;2024-03-29T04:17:24;8.70;99.90
23371;DHT22;11858;51.056;3.712;2024-03-29T04:19:50;8.70;99.90
23371;DHT22;11858;51.056;3.712;2024-03-29T04:22:15;8.70;99.90
23371;DHT22;11858;51.056;3.712;2024-03-29T04:24:41;8.60;99.90
23371;DHT22;11858;51.056;3.712;2024-03-29T04:27:06;8.60;99.90
23371;DHT22;11858;51.056;3.712;2024-03-29T04:29:32;8.50;99.90
23371;DHT22;11858;51.056;3.712;2024-03-29T04:31:58;8.50;99.90
23371;DHT22;11858;51.056;3.712;2024-03-29T04:34:23;8.40;99.90
23371;DHT22;11858;51.056;3.712;2024-03-29T04:36:49;8.40;99.90
23371;DHT22;11858;51.056;3.712;2024-03-29T04:39:14;8.30;99.90
23371;DHT22;11858;51.056;3.712;2024-03-29T04:41:40;8.40;99.90
23371;DHT22;11858;51.056;3.712;2024-03-29T04:44:06;8.40;99.90
23371;DHT22;11858;51.056;3.712;2024-03-29T04:46:33;8.40;99.90
23371;DHT22;11858;51.056;3.712;2024-03-29T04:48:59;8.40;99.90
23371;DHT22;11858;51.056;3.712;2024-03-29T04:51:24;8.50;99.90
23371;DHT22;11858;51.056;3.712;2024-03-29T04:53:50;8.40;99.90
23371;DHT22;11858;51.056;3.712;2024-03-29T04:56:16;8.40;99.90
23371;DHT22;11858;51.056;3.712;2024-03-29T04:58:42;8.40;99.90
23371;DHT22;11858;51.056;3.712;2024-03-29T05:01:08;8.40;99.90
23371;DHT22;11858;51.056;3.712;2024-03-29T05:03:33;8.40;99.90
23371;DHT22;11858;51.056;3.712;2024-03-29T05:05:59;8.50;99.90
23371;DHT22;11858;51.056;3.712;2024-03-29T05:08:25;8.50;99.90
23371;DHT22;11858;51.056;3.712;2024-03-29T05:10:51;8.50;99.90
23371;DHT22;11858;51.056;3.712;2024-03-29T05:13:18;8.50;99.90
23371;DHT22;11858;51.056;3.712;2024-03-29T05:15:49;8.70;99.90
23371;DHT22;11858;51.056;3.712;2024-03-29T05:18:15;8.60;99.90
23371;DHT22;11858;51.056;3.712;2024-03-29T05:20:40;8.60;99.90
23371;DHT22;11858;51.056;3.712;2024-03-29T05:23:15;8.60;99.90
23371;DHT22;11858;51.056;3.712;2024-03-29T05:25:42;8.70;99.90
23371;DHT22;11858;51.056;3.712;2024-03-29T05:28:08;8.70;99.90
23371;DHT22;11858;51.056;3.712;2024-03-29T05:30:34;8.70;99.90
23371;DHT22;11858;51.056;3.712;2024-03-29T05:33:02;8.70;99.90
23371;DHT22;11858;51.056;3.712;2024-03-29T05:35:28;8.80;99.90
23371;DHT22;11858;51.056;3.712;2024-03-29T05:37:54;8.80;99.90
23371;DHT22;11858;51.056;3.712;2024-03-29T05:40:20;8.60;99.90
23371;DHT22;11858;51.056;3.712;2024-03-29T05:42:50;8.60;99.90
23371;DHT22;11858;51.056;3.712;2024-03-29T05:45:28;8.50;99.90
23371;DHT22;11858;51.056;3.712;2024-03-29T05:47:55;8.60;99.90
23371;DHT22;11858;51.056;3.712;2024-03-29T05:50:22;8.60;99.90
23371;DHT22;11858;51.056;3.712;2024-03-29T05:52:48;8.60;99.90
23371;DHT22;11858;51.056;3.712;2024-03-29T05:55:14;8.60;99.90
23371;DHT22;11858;51.056;3.712;2024-03-29T05:57:39;8.70;99.90
23371;DHT22;11858;51.056;3.712;2024-03-29T06:00:07;8.50;99.90
23371;DHT22;11858;51.056;3.712;2024-03-29T06:02:36;8.50;99.90
23371;DHT22;11858;51.056;3.712;2024-03-29T06:05:02;8.50;99.90
23371;DHT22;11858;51.056;3.712;2024-03-29T06:07:28;8.50;99.90
23371;DHT22;11858;51.056;3.712;2024-03-29T06:09:55;8.40;99.90
23371;DHT22;11858;51.056;3.712;2024-03-29T06:12:20;8.30;99.90
23371;DHT22;11858;51.056;3.712;2024-03-29T06:14:46;8.40;99.90
23371;DHT22;11858;51.056;3.712;2024-03-29T06:17:30;8.40;99.90
23371;DHT22;11858;51.056;3.712;2024-03-29T06:19:56;8.40;99.90
23371;DHT22;11858;51.056;3.712;2024-03-29T06:22:23;8.40;99.90
23371;DHT22;11858;51.056;3.712;2024-03-29T06:24:53;8.50;99.90
23371;DHT22;11858;51.056;3.712;2024-03-29T06:27:19;8.60;99.90
23371;DHT22;11858;51.056;3.712;2024-03-29T06:29:49;8.70;99.90
23371;DHT22;11858;51.056;3.712;2024-03-29T06:32:14;8.60;99.90
23371;DHT22;11858;51.056;3.712;2024-03-29T06:34:41;8.60;99.90
23371;DHT22;11858;51.056;3.712;2024-03-29T06:37:07;8.70;99.90
23371;DHT22;11858;51.056;3.712;2024-03-29T06:39:33;8.80;99.90
23371;DHT22;11858;51.056;3.712;2024-03-29T06:41:58;8.90;99.90
23371;DHT22;11858;51.056;3.712;2024-03-29T06:44:24;9.00;99.90
23371;DHT22;11858;51.056;3.712;2024-03-29T06:46:50;9.10;99.90
23371;DHT22;11858;51.056;3.712;2024-03-29T06:49:16;9.00;99.90
23371;DHT22;11858;51.056;3.712;2024-03-29T06:51:43;9.00;99.90
23371;DHT22;11858;51.056;3.712;2024-03-29T06:54:09;9.00;99.90
23371;DHT22;11858;51.056;3.712;2024-03-29T06:56:34;8.90;99.90
23371;DHT22;11858;51.056;3.712;2024-03-29T06:59:00;9.00;99.90
23371;DHT22;11858;51.056;3.712;2024-03-29T07:01:26;9.00;99.90
23371;DHT22;11858;51.056;3.712;2024-03-29T07:03:51;9.00;99.90
23371;DHT22;11858;51.056;3.712;2024-03-29T07:06:17;9.00;99.90
23371;DHT22;11858;51.056;3.712;2024-03-29T07:08:43;9.10;99.90
23371;DHT22;11858;51.056;3.712;2024-03-29T07:11:09;9.20;99.90
23371;DHT22;11858;51.056;3.712;2024-03-29T07:13:36;9.30;99.90
23371;DHT22;11858;51.056;3.712;2024-03-29T07:16:02;9.20;99.90
23371;DHT22;11858;51.056;3.712;2024-03-29T07:18:29;9.40;99.90
23371;DHT22;11858;51.056;3.712;2024-03-29T07:20:55;9.40;99.90
23371;DHT22;11858;51.056;3.712;2024-03-29T07:23:20;9.50;99.90
23371;DHT22;11858;51.056;3.712;2024-03-29T07:26:00;9.50;99.90
23371;DHT22;11858;51.056;3.712;2024-03-29T07:28:27;9.60;99.90
23371;DHT22;11858;51.056;3.712;2024-03-29T07:30:53;9.50;99.90
23371;DHT22;11858;51.056;3.712;2024-03-29T07:33:20;9.60;99.90
23371;DHT22;11858;51.056;3.712;2024-03-29T07:35:49;9.70;99.90
23371;DHT22;11858;51.056;3.712;2024-03-29T07:38:15;9.60;99.90
23371;DHT22;11858;51.056;3.712;2024-03-29T07:40:46;9.60;99.90
23371;DHT22;11858;51.056;3.712;2024-03-29T07:43:12;9.70;99.90
23371;DHT22;11858;51.056;3.712;2024-03-29T07:45:40;9.90;99.90
23371;DHT22;11858;51.056;3.712;2024-03-29T07:48:06;10.00;99.90
23371;DHT22;11858;51.056;3.712;2024-03-29T07:50:32;10.20;99.90
23371;DHT22;11858;51.056;3.712;2024-03-29T07:52:58;10.20;99.90
23371;DHT22;11858;51.056;3.712;2024-03-29T07:55:23;10.20;99.90
23371;DHT22;11858;51.056;3.712;2024-03-29T07:57:49;10.10;99.90
23371;DHT22;11858;51.056;3.712;2024-03-29T08:00:16;10.10;99.90
23371;DHT22;11858;51.056;3.712;2024-03-29T08:02:41;10.10;99.90
23371;DHT22;11858;51.056;3.712;2024-03-29T08:05:07;10.20;99.90
23371;DHT22;11858;51.056;3.712;2024-03-29T08:07:33;10.10;99.90
23371;DHT22;11858;51.056;3.712;2024-03-29T08:09:58;10.20;99.90
23371;DHT22;11858;51.056;3.712;2024-03-29T08:12:24;10.10;99.90
23371;DHT22;11858;51.056;3.712;2024-03-29T08:14:50;10.20;99.90
23371;DHT22;11858;51.056;3.712;2024-03-29T08:17:15;10.30;99.90
23371;DHT22;11858;51.056;3.712;2024-03-29T08:19:42;10.30;99.90
23371;DHT22;11858;51.056;3.712;2024-03-29T08:22:08;10.20;99.90
23371;DHT22;11858;51.056;3.712;2024-03-29T08:24:36;10.20;99.90
23371;DHT22;11858;51.056;3.712;2024-03-29T08:27:02;10.10;99.90
23371;DHT22;11858;51.056;3.712;2024-03-29T08:29:28;10.20;99.90
23371;DHT22;11858;51.056;3.712;2024-03-29T08:31:54;10.50;99.90
23371;DHT22;11858;51.056;3.712;2024-03-29T08:34:19;10.80;99.90
23371;DHT22;11858;51.056;3.712;2024-03-29T08:36:45;10.80;99.90
23371;DHT22;11858;51.056;3.712;2024-03-29T08:39:11;10.80;99.90
23371;DHT22;11858;51.056;3.712;2024-03-29T08:41:37;10.80;99.90
23371;DHT22;11858;51.056;3.712;2024-03-29T08:44:02;10.80;99.90
23371;DHT22;11858;51.056;3.712;2024-03-29T08:46:28;10.70;99.90
23371;DHT22;11858;51.056;3.712;2024-03-29T08:48:54;10.70;99.90
23371;DHT22;11858;51.056;3.712;2024-03-29T08:51:21;10.70;99.90
23371;DHT22;11858;51.056;3.712;2024-03-29T08:53:46;10.80;99.90
23371;DHT22;11858;51.056;3.712;2024-03-29T08:56:12;11.10;99.90
23371;DHT22;11858;51.056;3.712;2024-03-29T08:58:38;11.10;99.90
23371;DHT22;11858;51.056;3.712;2024-03-29T09:01:04;11.20;99.90
23371;DHT22;11858;51.056;3.712;2024-03-29T09:03:30;11.20;99.90
23371;DHT22;11858;51.056;3.712;2024-03-29T09:05:57;11.30;99.90
23371;DHT22;11858;51.056;3.712;2024-03-29T09:08:22;11.50;99.90
23371;DHT22;11858;51.056;3.712;2024-03-29T09:10:48;11.50;99.90
23371;DHT22;11858;51.056;3.712;2024-03-29T09:13:14;11.80;99.90
23371;DHT22;11858;51.056;3.712;2024-03-29T09:15:40;12.00;99.90
23371;DHT22;11858;51.056;3.712;2024-03-29T09:18:06;12.00;99.90
23371;DHT22;11858;51.056;3.712;2024-03-29T09:20:59;11.90;99.90
23371;DHT22;11858;51.056;3.712;2024-03-29T09:23:26;11.90;99.90
23371;DHT22;11858;51.056;3.712;2024-03-29T09:25:55;12.00;99.90
23371;DHT22;11858;51.056;3.712;2024-03-29T09:28:22;12.10;99.90
23371;DHT22;11858;51.056;3.712;2024-03-29T09:30:48;12.30;99.90
23371;DHT22;11858;51.056;3.712;2024-03-29T09:33:14;12.80;99.90
23371;DHT22;11858;51.056;3.712;2024-03-29T09:35:40;13.60;99.90
23371;DHT22;11858;51.056;3.712;2024-03-29T09:38:06;14.10;99.90
23371;DHT22;11858;51.056;3.712;2024-03-29T09:40:32;15.40;99.90
23371;DHT22;11858;51.056;3.712;2024-03-29T09:43:00;15.70;99.90
23371;DHT22;11858;51.056;3.712;2024-03-29T09:45:34;15.70;99.90
23371;DHT22;11858;51.056;3.712;2024-03-29T09:48:03;14.50;99.90
23371;DHT22;11858;51.056;3.712;2024-03-29T09:50:33;14.40;99.90
23371;DHT22;11858;51.056;3.712;2024-03-29T09:52:59;14.50;99.90
23371;DHT22;11858;51.056;3.712;2024-03-29T09:55:25;14.80;99.90
23371;DHT22;11858;51.056;3.712;2024-03-29T09:57:52;14.50;99.90
23371;DHT22;11858;51.056;3.712;2024-03-29T10:00:18;14.60;99.90
23371;DHT22;11858;51.056;3.712;2024-03-29T10:02:44;15.20;99.90
23371;DHT22;11858;51.056;3.712;2024-03-29T10:05:11;15.70;99.90
23371;DHT22;11858;51.056;3.712;2024-03-29T10:07:38;15.90;99.90
23371;DHT22;11858;51.056;3.712;2024-03-29T10:10:05;16.20;99.90
23371;DHT22;11858;51.056;3.712;2024-03-29T10:12:31;15.90;99.90
23371;DHT22;11858;51.056;3.712;2024-03-29T10:14:57;15.70;99.90
23371;DHT22;11858;51.056;3.712;2024-03-29T10:17:34;15.80;99.90
23371;DHT22;11858;51.056;3.712;2024-03-29T10:20:03;16.80;99.90
23371;DHT22;11858;51.056;3.712;2024-03-29T10:22:30;16.40;99.90
23371;DHT22;11858;51.056;3.712;2024-03-29T10:24:59;16.00;99.90
23371;DHT22;11858;51.056;3.712;2024-03-29T10:27:27;15.90;99.90
23371;DHT22;11858;51.056;3.712;2024-03-29T10:29:53;16.00;99.90
23371;DHT22;11858;51.056;3.712;2024-03-29T10:32:19;16.00;99.90
23371;DHT22;11858;51.056;3.712;2024-03-29T10:34:45;15.90;99.90
23371;DHT22;11858;51.056;3.712;2024-03-29T10:37:13;16.20;99.90
23371;DHT22;11858;51.056;3.712;2024-03-29T10:39:42;15.50;99.90
23371;DHT22;11858;51.056;3.712;2024-03-29T10:42:09;15.20;99.90
23371;DHT22;11858;51.056;3.712;2024-03-29T10:44:39;15.10;99.90
23371;DHT22;11858;51.056;3.712;2024-03-29T10:47:06;15.20;99.90
23371;DHT22;11858;51.056;3.712;2024-03-29T10:49:32;15.30;99.90
23371;DHT22;11858;51.056;3.712;2024-03-29T10:52:00;15.40;99.90
23371;DHT22;11858;51.056;3.712;2024-03-29T10:54:25;15.40;99.90
23371;DHT22;11858;51.056;3.712;2024-03-29T10:57:00;15.50;99.90
23371;DHT22;11858;51.056;3.712;2024-03-29T11:00:29;15.60;99.90
23371;DHT22;11858;51.056;3.712;2024-03-29T11:02:57;15.80;99.90
23371;DHT22;11858;51.056;3.712;2024-03-29T11:05:30;16.50;99.90
23371;DHT22;11858;51.056;3.712;2024-03-29T11:07:56;16.60;99.90
23371;DHT22;11858;51.056;3.712;2024-03-29T11:10:30;17.50;99.90
23371;DHT22;11858;51.056;3.712;2024-03-29T11:13:03;18.20;99.90
23371;DHT22;11858;51.056;3.712;2024-03-29T11:15:31;17.80;99.90
23371;DHT22;11858;51.056;3.712;2024-03-29T11:18:01;17.30;99.90
23371;DHT22;11858;51.056;3.712;2024-03-29T11:20:27;17.40;99.90
23371;DHT22;11858;51.056;3.712;2024-03-29T11:23:20;17.80;99.90
23371;DHT22;11858;51.056;3.712;2024-03-29T11:25:50;17.60;99.90
23371;DHT22;11858;51.056;3.712;2024-03-29T11:28:30;17.00;99.90
23371;DHT22;11858;51.056;3.712;2024-03-29T11:31:02;16.70;99.90
23371;DHT22;11858;51.056;3.712;2024-03-29T11:36:24;16.30;99.90
23371;DHT22;11858;51.056;3.712;2024-03-29T11:38:51;16.40;99.90
23371;DHT22;11858;51.056;3.712;2024-03-29T11:41:21;16.80;99.90
23371;DHT22;11858;51.056;3.712;2024-03-29T11:43:56;17.10;99.90
23371;DHT22;11858;51.056;3.712;2024-03-29T11:46:23;17.10;99.90
23371;DHT22;11858;51.056;3.712;2024-03-29T11:48:49;17.00;99.90
23371;DHT22;11858;51.056;3.712;2024-03-29T11:51:19;17.30;99.90
23371;DHT22;11858;51.056;3.712;2024-03-29T11:53:47;17.60;99.90
23371;DHT22;11858;51.056;3.712;2024-03-29T11:56:13;18.20;99.90
23371;DHT22;11858;51.056;3.712;2024-03-29T11:58:40;18.10;99.90
23371;DHT22;11858;51.056;3.712;2024-03-29T12:01:06;18.00;99.90
23371;DHT22;11858;51.056;3.712;2024-03-29T12:03:38;18.30;99.90
23371;DHT22;11858;51.056;3.712;2024-03-29T12:06:04;18.00;99.90
23371;DHT22;11858;51.056;3.712;2024-03-29T12:08:32;17.60;99.90
23371;DHT22;11858;51.056;3.712;2024-03-29T12:10:59;17.60;99.90
23371;DHT22;11858;51.056;3.712;2024-03-29T12:13:25;17.50;99.90
23371;DHT22;11858;51.056;3.712;2024-03-29T12:15:50;17.70;99.90
23371;DHT22;11858;51.056;3.712;2024-03-29T12:18:18;17.20;99.90
23371;DHT22;11858;51.056;3.712;2024-03-29T12:20:45;17.20;99.90
23371;DHT22;11858;51.056;3.712;2024-03-29T12:23:15;17.60;99.90
23371;DHT22;11858;51.056;3.712;2024-03-29T12:25:41;17.70;99.90
23371;DHT22;11858;51.056;3.712;2024-03-29T12:28:08;17.60;99.90
23371;DHT22;11858;51.056;3.712;2024-03-29T12:30:34;17.30;99.90
23371;DHT22;11858;51.056;3.712;2024-03-29T12:33:04;17.30;99.90
23371;DHT22;11858;51.056;3.712;2024-03-29T12:35:30;17.40;99.90
23371;DHT22;11858;51.056;3.712;2024-03-29T12:38:03;17.80;99.90
23371;DHT22;11858;51.056;3.712;2024-03-29T12:40:29;18.00;99.90
23371;DHT22;11858;51.056;3.712;2024-03-29T12:42:58;18.30;99.90
23371;DHT22;11858;51.056;3.712;2024-03-29T12:45:24;18.40;99.90
23371;DHT22;11858;51.056;3.712;2024-03-29T12:47:50;18.00;99.90
23371;DHT22;11858;51.056;3.712;2024-03-29T12:52:48;18.10;99.90
23371;DHT22;11858;51.056;3.712;2024-03-29T12:55:13;17.70;99.90
23371;DHT22;11858;51.056;3.712;2024-03-29T12:57:43;18.10;99.90
23371;DHT22;11858;51.056;3.712;2024-03-29T13:00:12;17.80;99.90
23371;DHT22;11858;51.056;3.712;2024-03-29T13:02:38;17.80;99.90
23371;DHT22;11858;51.056;3.712;2024-03-29T13:05:04;17.70;99.90
23371;DHT22;11858;51.056;3.712;2024-03-29T13:07:31;17.20;99.90
23371;DHT22;11858;51.056;3.712;2024-03-29T13:09:57;17.50;99.90
23371;DHT22;11858;51.056;3.712;2024-03-29T13:12:29;17.00;99.90
23371;DHT22;11858;51.056;3.712;2024-03-29T13:14:55;16.60;99.90
23371;DHT22;11858;51.056;3.712;2024-03-29T13:17:21;16.60;99.90
23371;DHT22;11858;51.056;3.712;2024-03-29T13:19:47;16.90;99.90
23371;DHT22;11858;51.056;3.712;2024-03-29T13:22:12;17.10;99.90
23371;DHT22;11858;51.056;3.712;2024-03-29T13:24:38;17.40;99.90
23371;DHT22;11858;51.056;3.712;2024-03-29T13:27:04;17.50;99.90
23371;DHT22;11858;51.056;3.712;2024-03-29T13:29:30;17.50;99.90
23371;DHT22;11858;51.056;3.712;2024-03-29T13:31:56;17.20;99.90
23371;DHT22;11858;51.056;3.712;2024-03-29T13:34:22;17.50;99.90
23371;DHT22;11858;51.056;3.712;2024-03-29T13:36:48;17.90;99.90
23371;DHT22;11858;51.056;3.712;2024-03-29T13:39:14;17.50;99.90
23371;DHT22;11858;51.056;3.712;2024-03-29T13:41:40;17.40;99.90
23371;DHT22;11858;51.056;3.712;2024-03-29T13:44:06;16.90;99.90
23371;DHT22;11858;51.056;3.712;2024-03-29T13:46:36;16.70;99.90
23371;DHT22;11858;51.056;3.712;2024-03-29T13:49:02;16.80;99.90
23371;DHT22;11858;51.056;3.712;2024-03-29T13:51:31;16.80;99.90
23371;DHT22;11858;51.056;3.712;2024-03-29T13:53:56;16.80;99.90
23371;DHT22;11858;51.056;3.712;2024-03-29T13:56:22;16.50;99.90
23371;DHT22;11858;51.056;3.712;2024-03-29T13:58:48;16.60;99.90
23371;DHT22;11858;51.056;3.712;2024-03-29T14:01:14;16.60;99.90
23371;DHT22;11858;51.056;3.712;2024-03-29T14:03:40;16.70;99.90
23371;DHT22;11858;51.056;3.712;2024-03-29T14:06:05;16.60;99.90
23371;DHT22;11858;51.056;3.712;2024-03-29T14:08:32;16.70;99.90
23371;DHT22;11858;51.056;3.712;2024-03-29T14:10:58;16.40;99.90
23371;DHT22;11858;51.056;3.712;2024-03-29T14:13:24;16.00;99.90
23371;DHT22;11858;51.056;3.712;2024-03-29T14:15:50;16.00;99.90
23371;DHT22;11858;51.056;3.712;2024-03-29T14:18:15;15.70;99.90
23371;DHT22;11858;51.056;3.712;2024-03-29T14:20:41;15.60;99.90
23371;DHT22;11858;51.056;3.712;2024-03-29T14:23:07;15.80;99.90
23371;DHT22;11858;51.056;3.712;2024-03-29T14:25:36;16.00;99.90
23371;DHT22;11858;51.056;3.712;2024-03-29T14:28:02;16.10;99.90
23371;DHT22;11858;51.056;3.712;2024-03-29T14:30:29;15.90;99.90
23371;DHT22;11858;51.056;3.712;2024-03-29T14:32:57;15.80;99.90
23371;DHT22;11858;51.056;3.712;2024-03-29T14:35:27;16.10;99.90
23371;DHT22;11858;51.056;3.712;2024-03-29T14:37:54;16.30;99.90
23371;DHT22;11858;51.056;3.712;2024-03-29T14:40:21;16.80;99.90
23371;DHT22;11858;51.056;3.712;2024-03-29T14:42:46;17.00;99.90
23371;DHT22;11858;51.056;3.712;2024-03-29T14:45:12;16.70;99.90
23371;DHT22;11858;51.056;3.712;2024-03-29T14:47:38;16.60;99.90
23371;DHT22;11858;51.056;3.712;2024-03-29T14:50:04;16.70;99.90
23371;DHT22;11858;51.056;3.712;2024-03-29T14:52:36;16.80;99.90
23371;DHT22;11858;51.056;3.712;2024-03-29T14:55:04;16.80;99.90
23371;DHT22;11858;51.056;3.712;2024-03-29T14:57:30;16.60;99.90
23371;DHT22;11858;51.056;3.712;2024-03-29T14:59:58;16.70;99.90
23371;DHT22;11858;51.056;3.712;2024-03-29T15:02:24;16.40;99.90
23371;DHT22;11858;51.056;3.712;2024-03-29T15:04:49;16.80;99.90
23371;DHT22;11858;51.056;3.712;2024-03-29T15:07:15;16.80;99.90
23371;DHT22;11858;51.056;3.712;2024-03-29T15:09:41;17.00;99.90
23371;DHT22;11858;51.056;3.712;2024-03-29T15:12:06;17.20;99.90
23371;DHT22;11858;51.056;3.712;2024-03-29T15:14:34;16.90;99.90
23371;DHT22;11858;51.056;3.712;2024-03-29T15:17:03;17.00;99.90
23371;DHT22;11858;51.056;3.712;2024-03-29T15:19:29;16.90;99.90
23371;DHT22;11858;51.056;3.712;2024-03-29T15:21:55;16.80;99.90
23371;DHT22;11858;51.056;3.712;2024-03-29T15:24:21;16.70;99.90
23371;DHT22;11858;51.056;3.712;2024-03-29T15:26:47;16.70;99.90
23371;DHT22;11858;51.056;3.712;2024-03-29T15:29:13;16.50;99.90
23371;DHT22;11858;51.056;3.712;2024-03-29T15:31:41;16.00;99.90
23371;DHT22;11858;51.056;3.712;2024-03-29T15:34:09;16.00;99.90
23371;DHT22;11858;51.056;3.712;2024-03-29T15:36:35;16.10;99.90
23371;DHT22;11858;51.056;3.712;2024-03-29T15:39:02;15.90;99.90